sensor_id;sensor_type;location;lat;lon;timestamp;P1;durP1;ratioP1;P2;durP2;ratioP2
8411;SDS011;4243;49.296;11.348;2022-10-23T00:01:37;118.77;;;3.00;;
8411;SDS011;4243;49.296;11.348;2022-10-23T00:04:12;118.67;;;3.00;;
8411;SDS011;4243;49.296;11.348;2022-10-23T00:06:44;119.00;;;2.97;;
8411;SDS011;4243;49.296;11.348;2022-10-23T00:09:13;119.37;;;3.10;;
8411;SDS011;4243;49.296;11.348;2022-10-23T00:11:47;119.57;;;3.20;;
8411;SDS011;4243;49.296;11.348;2022-10-23T00:14:17;118.20;;;3.13;;
8411;SDS011;4243;49.296;11.348;2022-10-23T00:16:47;119.67;;;3.10;;
8411;SDS011;4243;49.296;11.348;2022-10-23T00:19:15;120.20;;;3.10;;
8411;SDS011;4243;49.296;11.348;2022-10-23T00:21:42;120.10;;;2.90;;
8411;SDS011;4243;49.296;11.348;2022-10-23T00:24:10;119.87;;;2.97;;
8411;SDS011;4243;49.296;11.348;2022-10-23T00:26:38;119.50;;;3.17;;
8411;SDS011;4243;49.296;11.348;2022-10-23T00:29:06;119.70;;;2.90;;
8411;SDS011;4243;49.296;11.348;2022-10-23T00:31:35;120.00;;;2.97;;
8411;SDS011;4243;49.296;11.348;2022-10-23T00:34:03;119.00;;;3.00;;
8411;SDS011;4243;49.296;11.348;2022-10-23T00:36:33;120.27;;;3.00;;
8411;SDS011;4243;49.296;11.348;2022-10-23T00:39:01;117.80;;;2.90;;
8411;SDS011;4243;49.296;11.348;2022-10-23T00:41:29;120.00;;;3.00;;
8411;SDS011;4243;49.296;11.348;2022-10-23T00:44:03;118.73;;;2.90;;
8411;SDS011;4243;49.296;11.348;2022-10-23T00:46:32;119.73;;;2.90;;
8411;SDS011;4243;49.296;11.348;2022-10-23T00:49:03;119.87;;;3.10;;
8411;SDS011;4243;49.296;11.348;2022-10-23T00:52:14;119.30;;;2.97;;
8411;SDS011;4243;49.296;11.348;2022-10-23T00:54:26;119.60;;;3.03;;
8411;SDS011;4243;49.296;11.348;2022-10-23T00:57:01;118.87;;;2.83;;
8411;SDS011;4243;49.296;11.348;2022-10-23T00:59:33;118.77;;;2.90;;
8411;SDS011;4243;49.296;11.348;2022-10-23T01:02:00;118.20;;;2.80;;
8411;SDS011;4243;49.296;11.348;2022-10-23T01:04:29;119.60;;;2.90;;
8411;SDS011;4243;49.296;11.348;2022-10-23T01:10:20;119.60;;;2.80;;
8411;SDS011;4243;49.296;11.348;2022-10-23T01:18:40;119.20;;;2.80;;
8411;SDS011;4243;49.296;11.348;2022-10-23T01:24:17;118.73;;;2.87;;
8411;SDS011;4243;49.296;11.348;2022-10-23T01:27:18;119.07;;;2.67;;
8411;SDS011;4243;49.296;11.348;2022-10-23T01:30:06;117.53;;;2.80;;
8411;SDS011;4243;49.296;11.348;2022-10-23T01:32:46;118.70;;;2.77;;
8411;SDS011;4243;49.296;11.348;2022-10-23T01:35:33;118.50;;;2.77;;
8411;SDS011;4243;49.296;11.348;2022-10-23T01:41:31;119.20;;;2.70;;
8411;SDS011;4243;49.296;11.348;2022-10-23T01:47:03;118.40;;;2.77;;
8411;SDS011;4243;49.296;11.348;2022-10-23T01:49:46;119.17;;;2.83;;
8411;SDS011;4243;49.296;11.348;2022-10-23T01:52:16;119.30;;;2.80;;
8411;SDS011;4243;49.296;11.348;2022-10-23T01:54:47;118.97;;;2.87;;
8411;SDS011;4243;49.296;11.348;2022-10-23T01:57:18;119.17;;;2.90;;
8411;SDS011;4243;49.296;11.348;2022-10-23T01:59:52;118.67;;;2.90;;
8411;SDS011;4243;49.296;11.348;2022-10-23T02:02:34;117.97;;;2.83;;
8411;SDS011;4243;49.296;11.348;2022-10-23T02:05:13;119.70;;;2.90;;
8411;SDS011;4243;49.296;11.348;2022-10-23T02:07:48;118.33;;;2.80;;
8411;SDS011;4243;49.296;11.348;2022-10-23T02:10:16;118.60;;;2.87;;
8411;SDS011;4243;49.296;11.348;2022-10-23T02:13:02;119.57;;;2.87;;
8411;SDS011;4243;49.296;11.348;2022-10-23T02:15:57;119.37;;;2.90;;
8411;SDS011;4243;49.296;11.348;2022-10-23T02:24:58;119.30;;;2.93;;
8411;SDS011;4243;49.296;11.348;2022-10-23T02:27:41;119.10;;;2.90;;
8411;SDS011;4243;49.296;11.348;2022-10-23T02:30:19;118.90;;;2.73;;
8411;SDS011;4243;49.296;11.348;2022-10-23T02:33:05;119.27;;;2.90;;
8411;SDS011;4243;49.296;11.348;2022-10-23T02:35:35;118.77;;;2.80;;
8411;SDS011;4243;49.296;11.348;2022-10-23T02:38:36;119.87;;;2.80;;
8411;SDS011;4243;49.296;11.348;2022-10-23T02:41:12;118.30;;;2.80;;
8411;SDS011;4243;49.296;11.348;2022-10-23T02:44:02;119.17;;;2.80;;
8411;SDS011;4243;49.296;11.348;2022-10-23T02:46:52;119.00;;;2.90;;
8411;SDS011;4243;49.296;11.348;2022-10-23T02:49:39;118.57;;;2.80;;
8411;SDS011;4243;49.296;11.348;2022-10-23T03:01:31;117.97;;;2.97;;
8411;SDS011;4243;49.296;11.348;2022-10-23T03:04:21;119.90;;;2.87;;
8411;SDS011;4243;49.296;11.348;2022-10-23T03:06:53;119.07;;;2.90;;
8411;SDS011;4243;49.296;11.348;2022-10-23T03:09:21;119.27;;;2.87;;
8411;SDS011;4243;49.296;11.348;2022-10-23T03:11:52;119.87;;;2.90;;
8411;SDS011;4243;49.296;11.348;2022-10-23T03:14:22;119.47;;;3.00;;
8411;SDS011;4243;49.296;11.348;2022-10-23T03:16:49;119.53;;;2.80;;
8411;SDS011;4243;49.296;11.348;2022-10-23T03:19:17;119.50;;;3.00;;
8411;SDS011;4243;49.296;11.348;2022-10-23T03:21:44;118.37;;;2.87;;
8411;SDS011;4243;49.296;11.348;2022-10-23T03:24:11;119.73;;;2.97;;
8411;SDS011;4243;49.296;11.348;2022-10-23T03:26:41;119.07;;;2.87;;
8411;SDS011;4243;49.296;11.348;2022-10-23T03:29:09;118.47;;;3.00;;
8411;SDS011;4243;49.296;11.348;2022-10-23T03:31:42;120.07;;;2.90;;
8411;SDS011;4243;49.296;11.348;2022-10-23T03:34:09;117.73;;;3.00;;
8411;SDS011;4243;49.296;11.348;2022-10-23T03:36:39;119.30;;;2.90;;
8411;SDS011;4243;49.296;11.348;2022-10-23T03:39:08;119.77;;;2.80;;
8411;SDS011;4243;49.296;11.348;2022-10-23T03:41:36;119.33;;;2.93;;
8411;SDS011;4243;49.296;11.348;2022-10-23T03:44:03;119.40;;;2.97;;
8411;SDS011;4243;49.296;11.348;2022-10-23T03:46:31;118.30;;;2.77;;
8411;SDS011;4243;49.296;11.348;2022-10-23T03:48:58;119.30;;;2.90;;
8411;SDS011;4243;49.296;11.348;2022-10-23T03:51:25;119.53;;;2.90;;
8411;SDS011;4243;49.296;11.348;2022-10-23T03:53:53;118.37;;;2.83;;
8411;SDS011;4243;49.296;11.348;2022-10-23T03:56:21;119.30;;;3.00;;
8411;SDS011;4243;49.296;11.348;2022-10-23T03:58:48;119.27;;;2.90;;
8411;SDS011;4243;49.296;11.348;2022-10-23T04:01:15;119.07;;;3.00;;
8411;SDS011;4243;49.296;11.348;2022-10-23T04:03:44;119.17;;;2.90;;
8411;SDS011;4243;49.296;11.348;2022-10-23T04:06:13;118.67;;;3.00;;
8411;SDS011;4243;49.296;11.348;2022-10-23T04:08:44;119.10;;;2.93;;
8411;SDS011;4243;49.296;11.348;2022-10-23T04:11:14;117.97;;;2.73;;
8411;SDS011;4243;49.296;11.348;2022-10-23T04:13:44;118.10;;;2.90;;
8411;SDS011;4243;49.296;11.348;2022-10-23T04:16:12;118.17;;;2.93;;
8411;SDS011;4243;49.296;11.348;2022-10-23T04:18:40;119.80;;;2.83;;
8411;SDS011;4243;49.296;11.348;2022-10-23T04:21:08;119.57;;;2.70;;
8411;SDS011;4243;49.296;11.348;2022-10-23T04:23:37;119.37;;;2.80;;
8411;SDS011;4243;49.296;11.348;2022-10-23T04:26:11;119.47;;;2.70;;
8411;SDS011;4243;49.296;11.348;2022-10-23T04:28:38;117.80;;;2.77;;
8411;SDS011;4243;49.296;11.348;2022-10-23T04:31:06;118.80;;;2.80;;
8411;SDS011;4243;49.296;11.348;2022-10-23T04:33:33;117.87;;;2.87;;
8411;SDS011;4243;49.296;11.348;2022-10-23T04:36:00;118.07;;;2.80;;
8411;SDS011;4243;49.296;11.348;2022-10-23T04:38:27;118.57;;;2.90;;
8411;SDS011;4243;49.296;11.348;2022-10-23T04:40:55;119.27;;;2.90;;
8411;SDS011;4243;49.296;11.348;2022-10-23T04:43:22;118.60;;;2.70;;
8411;SDS011;4243;49.296;11.348;2022-10-23T04:45:50;117.97;;;2.80;;
8411;SDS011;4243;49.296;11.348;2022-10-23T04:48:18;118.07;;;2.73;;
8411;SDS011;4243;49.296;11.348;2022-10-23T04:51:09;117.87;;;2.83;;
8411;SDS011;4243;49.296;11.348;2022-10-23T04:54:09;119.47;;;2.87;;
8411;SDS011;4243;49.296;11.348;2022-10-23T04:56:44;118.10;;;2.77;;
8411;SDS011;4243;49.296;11.348;2022-10-23T04:59:17;118.47;;;2.83;;
8411;SDS011;4243;49.296;11.348;2022-10-23T05:01:45;118.73;;;2.90;;
8411;SDS011;4243;49.296;11.348;2022-10-23T05:04:13;119.23;;;2.80;;
8411;SDS011;4243;49.296;11.348;2022-10-23T05:07:01;119.37;;;2.80;;
8411;SDS011;4243;49.296;11.348;2022-10-23T05:09:57;118.57;;;2.80;;
8411;SDS011;4243;49.296;11.348;2022-10-23T05:12:28;119.53;;;2.77;;
8411;SDS011;4243;49.296;11.348;2022-10-23T05:14:55;119.67;;;2.80;;
8411;SDS011;4243;49.296;11.348;2022-10-23T05:17:26;119.40;;;2.80;;
8411;SDS011;4243;49.296;11.348;2022-10-23T05:20:03;119.47;;;2.80;;
8411;SDS011;4243;49.296;11.348;2022-10-23T05:22:38;119.17;;;2.73;;
8411;SDS011;4243;49.296;11.348;2022-10-23T05:25:09;119.77;;;2.90;;
8411;SDS011;4243;49.296;11.348;2022-10-23T05:27:42;118.27;;;2.90;;
8411;SDS011;4243;49.296;11.348;2022-10-23T05:30:12;119.40;;;2.70;;
8411;SDS011;4243;49.296;11.348;2022-10-23T05:32:40;119.67;;;2.90;;
8411;SDS011;4243;49.296;11.348;2022-10-23T05:35:10;119.33;;;2.70;;
8411;SDS011;4243;49.296;11.348;2022-10-23T05:37:46;118.33;;;2.80;;
8411;SDS011;4243;49.296;11.348;2022-10-23T05:40:19;119.10;;;2.80;;
8411;SDS011;4243;49.296;11.348;2022-10-23T05:42:51;119.27;;;2.70;;
8411;SDS011;4243;49.296;11.348;2022-10-23T05:45:27;118.27;;;2.80;;
8411;SDS011;4243;49.296;11.348;2022-10-23T05:48:13;118.87;;;2.70;;
8411;SDS011;4243;49.296;11.348;2022-10-23T05:51:17;118.53;;;2.73;;
8411;SDS011;4243;49.296;11.348;2022-10-23T05:53:54;118.17;;;2.80;;
8411;SDS011;4243;49.296;11.348;2022-10-23T05:56:34;118.90;;;2.80;;
8411;SDS011;4243;49.296;11.348;2022-10-23T05:59:32;119.47;;;2.73;;
8411;SDS011;4243;49.296;11.348;2022-10-23T06:02:28;119.20;;;2.80;;
8411;SDS011;4243;49.296;11.348;2022-10-23T06:05:05;118.60;;;2.80;;
8411;SDS011;4243;49.296;11.348;2022-10-23T06:07:57;118.73;;;2.77;;
8411;SDS011;4243;49.296;11.348;2022-10-23T06:10:26;118.97;;;2.80;;
8411;SDS011;4243;49.296;11.348;2022-10-23T06:12:57;118.93;;;2.77;;
8411;SDS011;4243;49.296;11.348;2022-10-23T06:15:25;119.23;;;2.77;;
8411;SDS011;4243;49.296;11.348;2022-10-23T06:18:02;119.27;;;2.70;;
8411;SDS011;4243;49.296;11.348;2022-10-23T06:20:34;118.77;;;2.80;;
8411;SDS011;4243;49.296;11.348;2022-10-23T06:23:13;118.37;;;2.70;;
8411;SDS011;4243;49.296;11.348;2022-10-23T06:26:04;117.97;;;2.80;;
8411;SDS011;4243;49.296;11.348;2022-10-23T06:28:54;118.40;;;2.80;;
8411;SDS011;4243;49.296;11.348;2022-10-23T06:31:22;117.27;;;2.73;;
8411;SDS011;4243;49.296;11.348;2022-10-23T06:33:55;118.53;;;3.00;;
8411;SDS011;4243;49.296;11.348;2022-10-23T06:36:24;117.60;;;2.90;;
8411;SDS011;4243;49.296;11.348;2022-10-23T06:38:59;119.10;;;2.80;;
8411;SDS011;4243;49.296;11.348;2022-10-23T06:41:47;118.70;;;2.70;;
8411;SDS011;4243;49.296;11.348;2022-10-23T06:44:34;118.60;;;2.80;;
8411;SDS011;4243;49.296;11.348;2022-10-23T06:47:07;118.77;;;2.70;;
8411;SDS011;4243;49.296;11.348;2022-10-23T06:50:05;117.87;;;2.73;;
8411;SDS011;4243;49.296;11.348;2022-10-23T06:52:38;117.77;;;2.80;;
8411;SDS011;4243;49.296;11.348;2022-10-23T06:55:15;118.60;;;2.90;;
8411;SDS011;4243;49.296;11.348;2022-10-23T06:57:44;116.43;;;2.87;;
8411;SDS011;4243;49.296;11.348;2022-10-23T07:00:12;118.17;;;2.97;;
8411;SDS011;4243;49.296;11.348;2022-10-23T07:02:47;118.43;;;2.80;;
8411;SDS011;4243;49.296;11.348;2022-10-23T07:05:15;117.77;;;2.80;;
8411;SDS011;4243;49.296;11.348;2022-10-23T07:07:44;117.90;;;2.80;;
8411;SDS011;4243;49.296;11.348;2022-10-23T07:10:17;118.07;;;2.70;;
8411;SDS011;4243;49.296;11.348;2022-10-23T07:12:54;116.83;;;2.77;;
8411;SDS011;4243;49.296;11.348;2022-10-23T07:15:38;118.17;;;2.80;;
8411;SDS011;4243;49.296;11.348;2022-10-23T07:18:08;117.67;;;2.73;;
8411;SDS011;4243;49.296;11.348;2022-10-23T07:20:59;117.93;;;2.70;;
8411;SDS011;4243;49.296;11.348;2022-10-23T07:23:29;118.40;;;2.77;;
8411;SDS011;4243;49.296;11.348;2022-10-23T07:26:01;118.00;;;2.80;;
8411;SDS011;4243;49.296;11.348;2022-10-23T07:28:42;117.00;;;2.93;;
8411;SDS011;4243;49.296;11.348;2022-10-23T07:31:16;117.63;;;2.80;;
8411;SDS011;4243;49.296;11.348;2022-10-23T07:34:15;117.87;;;3.00;;
8411;SDS011;4243;49.296;11.348;2022-10-23T07:36:45;118.23;;;3.07;;
8411;SDS011;4243;49.296;11.348;2022-10-23T07:39:12;118.40;;;3.10;;
8411;SDS011;4243;49.296;11.348;2022-10-23T07:41:47;118.57;;;3.50;;
8411;SDS011;4243;49.296;11.348;2022-10-23T07:44:16;118.67;;;3.47;;
8411;SDS011;4243;49.296;11.348;2022-10-23T07:46:49;118.10;;;3.10;;
8411;SDS011;4243;49.296;11.348;2022-10-23T07:49:17;118.90;;;3.70;;
8411;SDS011;4243;49.296;11.348;2022-10-23T07:51:44;119.17;;;3.97;;
8411;SDS011;4243;49.296;11.348;2022-10-23T07:54:17;118.57;;;3.70;;
8411;SDS011;4243;49.296;11.348;2022-10-23T07:57:13;118.20;;;3.17;;
8411;SDS011;4243;49.296;11.348;2022-10-23T07:59:45;118.60;;;3.10;;
8411;SDS011;4243;49.296;11.348;2022-10-23T08:03:43;118.33;;;2.97;;
8411;SDS011;4243;49.296;11.348;2022-10-23T08:06:11;117.80;;;2.80;;
8411;SDS011;4243;49.296;11.348;2022-10-23T08:08:39;118.47;;;2.90;;
8411;SDS011;4243;49.296;11.348;2022-10-23T08:11:08;117.80;;;2.70;;
8411;SDS011;4243;49.296;11.348;2022-10-23T08:13:47;118.10;;;2.70;;
8411;SDS011;4243;49.296;11.348;2022-10-23T08:16:15;117.70;;;2.47;;
8411;SDS011;4243;49.296;11.348;2022-10-23T08:18:57;117.70;;;2.60;;
8411;SDS011;4243;49.296;11.348;2022-10-23T08:21:26;117.70;;;2.67;;
8411;SDS011;4243;49.296;11.348;2022-10-23T08:23:54;117.73;;;2.67;;
8411;SDS011;4243;49.296;11.348;2022-10-23T08:26:25;117.70;;;2.40;;
8411;SDS011;4243;49.296;11.348;2022-10-23T08:28:54;118.07;;;2.60;;
8411;SDS011;4243;49.296;11.348;2022-10-23T08:31:26;118.17;;;3.20;;
8411;SDS011;4243;49.296;11.348;2022-10-23T08:34:14;118.27;;;3.00;;
8411;SDS011;4243;49.296;11.348;2022-10-23T08:36:45;117.63;;;2.97;;
8411;SDS011;4243;49.296;11.348;2022-10-23T08:39:13;118.43;;;3.23;;
8411;SDS011;4243;49.296;11.348;2022-10-23T08:41:54;118.30;;;3.50;;
8411;SDS011;4243;49.296;11.348;2022-10-23T08:44:27;118.77;;;3.50;;
8411;SDS011;4243;49.296;11.348;2022-10-23T08:47:12;118.70;;;3.40;;
8411;SDS011;4243;49.296;11.348;2022-10-23T08:50:35;118.37;;;3.20;;
8411;SDS011;4243;49.296;11.348;2022-10-23T08:56:34;118.97;;;3.40;;
8411;SDS011;4243;49.296;11.348;2022-10-23T09:02:12;118.60;;;3.20;;
8411;SDS011;4243;49.296;11.348;2022-10-23T09:04:47;118.83;;;2.87;;
8411;SDS011;4243;49.296;11.348;2022-10-23T09:10:50;118.70;;;2.47;;
8411;SDS011;4243;49.296;11.348;2022-10-23T09:17:09;118.33;;;2.40;;
8411;SDS011;4243;49.296;11.348;2022-10-23T09:20:12;118.20;;;2.30;;
8411;SDS011;4243;49.296;11.348;2022-10-23T09:22:51;118.23;;;2.10;;
8411;SDS011;4243;49.296;11.348;2022-10-23T09:25:30;117.57;;;2.10;;
8411;SDS011;4243;49.296;11.348;2022-10-23T09:28:04;117.20;;;2.00;;
8411;SDS011;4243;49.296;11.348;2022-10-23T09:30:33;116.87;;;2.00;;
8411;SDS011;4243;49.296;11.348;2022-10-23T09:33:14;117.20;;;2.30;;
8411;SDS011;4243;49.296;11.348;2022-10-23T09:38:29;117.70;;;2.30;;
8411;SDS011;4243;49.296;11.348;2022-10-23T09:41:13;117.50;;;2.70;;
8411;SDS011;4243;49.296;11.348;2022-10-23T09:43:57;118.37;;;2.60;;
8411;SDS011;4243;49.296;11.348;2022-10-23T09:46:36;118.40;;;2.53;;
8411;SDS011;4243;49.296;11.348;2022-10-23T09:49:17;118.10;;;2.67;;
8411;SDS011;4243;49.296;11.348;2022-10-23T09:54:36;117.50;;;2.10;;
8411;SDS011;4243;49.296;11.348;2022-10-23T09:57:57;117.80;;;2.10;;
8411;SDS011;4243;49.296;11.348;2022-10-23T10:06:02;117.30;;;2.00;;
8411;SDS011;4243;49.296;11.348;2022-10-23T10:08:34;117.37;;;2.10;;
8411;SDS011;4243;49.296;11.348;2022-10-23T10:11:33;117.20;;;2.10;;
8411;SDS011;4243;49.296;11.348;2022-10-23T10:16:53;117.37;;;2.20;;
8411;SDS011;4243;49.296;11.348;2022-10-23T10:19:51;116.80;;;2.20;;
8411;SDS011;4243;49.296;11.348;2022-10-23T10:22:52;116.80;;;2.50;;
8411;SDS011;4243;49.296;11.348;2022-10-23T10:25:43;116.20;;;2.20;;
8411;SDS011;4243;49.296;11.348;2022-10-23T10:32:02;116.10;;;1.83;;
8411;SDS011;4243;49.296;11.348;2022-10-23T10:34:50;116.77;;;1.83;;
8411;SDS011;4243;49.296;11.348;2022-10-23T10:37:43;116.73;;;1.90;;
8411;SDS011;4243;49.296;11.348;2022-10-23T10:40:27;116.47;;;2.10;;
8411;SDS011;4243;49.296;11.348;2022-10-23T10:46:05;115.60;;;2.10;;
8411;SDS011;4243;49.296;11.348;2022-10-23T10:51:42;116.00;;;2.10;;
8411;SDS011;4243;49.296;11.348;2022-10-23T10:57:03;116.50;;;2.30;;
8411;SDS011;4243;49.296;11.348;2022-10-23T10:59:39;116.47;;;2.50;;
8411;SDS011;4243;49.296;11.348;2022-10-23T11:02:24;116.37;;;2.40;;
8411;SDS011;4243;49.296;11.348;2022-10-23T11:05:12;116.57;;;2.40;;
8411;SDS011;4243;49.296;11.348;2022-10-23T11:07:56;115.97;;;2.27;;
8411;SDS011;4243;49.296;11.348;2022-10-23T11:10:42;115.60;;;2.20;;
8411;SDS011;4243;49.296;11.348;2022-10-23T11:13:25;115.20;;;2.03;;
8411;SDS011;4243;49.296;11.348;2022-10-23T11:16:24;115.47;;;1.90;;
8411;SDS011;4243;49.296;11.348;2022-10-23T11:19:25;115.30;;;1.80;;
8411;SDS011;4243;49.296;11.348;2022-10-23T11:22:20;115.40;;;1.90;;
8411;SDS011;4243;49.296;11.348;2022-10-23T11:25:11;115.00;;;1.87;;
8411;SDS011;4243;49.296;11.348;2022-10-23T11:31:31;115.60;;;1.80;;
8411;SDS011;4243;49.296;11.348;2022-10-23T11:37:14;115.57;;;1.90;;
8411;SDS011;4243;49.296;11.348;2022-10-23T11:42:49;115.37;;;2.00;;
8411;SDS011;4243;49.296;11.348;2022-10-23T11:45:24;115.50;;;1.97;;
8411;SDS011;4243;49.296;11.348;2022-10-23T11:48:00;115.97;;;2.03;;
8411;SDS011;4243;49.296;11.348;2022-10-23T11:53:24;115.33;;;2.17;;
8411;SDS011;4243;49.296;11.348;2022-10-23T11:55:59;115.50;;;2.00;;
8411;SDS011;4243;49.296;11.348;2022-10-23T11:58:46;115.60;;;2.13;;
8411;SDS011;4243;49.296;11.348;2022-10-23T12:01:24;115.97;;;2.40;;
8411;SDS011;4243;49.296;11.348;2022-10-23T12:06:52;115.77;;;1.90;;
8411;SDS011;4243;49.296;11.348;2022-10-23T12:12:25;115.87;;;2.00;;
8411;SDS011;4243;49.296;11.348;2022-10-23T12:17:40;115.33;;;2.30;;
8411;SDS011;4243;49.296;11.348;2022-10-23T12:25:06;116.07;;;2.50;;
8411;SDS011;4243;49.296;11.348;2022-10-23T12:27:43;116.07;;;2.40;;
8411;SDS011;4243;49.296;11.348;2022-10-23T12:30:41;116.23;;;2.40;;
8411;SDS011;4243;49.296;11.348;2022-10-23T12:33:32;116.23;;;2.30;;
8411;SDS011;4243;49.296;11.348;2022-10-23T12:39:23;116.93;;;2.67;;
8411;SDS011;4243;49.296;11.348;2022-10-23T12:41:55;116.50;;;2.27;;
8411;SDS011;4243;49.296;11.348;2022-10-23T12:44:24;116.97;;;2.60;;
8411;SDS011;4243;49.296;11.348;2022-10-23T12:47:00;116.97;;;2.43;;
8411;SDS011;4243;49.296;11.348;2022-10-23T12:49:30;117.20;;;2.40;;
8411;SDS011;4243;49.296;11.348;2022-10-23T12:52:03;117.07;;;2.50;;
8411;SDS011;4243;49.296;11.348;2022-10-23T12:54:41;116.97;;;2.57;;
8411;SDS011;4243;49.296;11.348;2022-10-23T12:57:26;117.40;;;2.50;;
8411;SDS011;4243;49.296;11.348;2022-10-23T12:59:59;116.77;;;2.40;;
8411;SDS011;4243;49.296;11.348;2022-10-23T13:02:37;116.80;;;2.13;;
8411;SDS011;4243;49.296;11.348;2022-10-23T13:05:06;116.30;;;2.03;;
8411;SDS011;4243;49.296;11.348;2022-10-23T13:07:42;116.13;;;2.07;;
8411;SDS011;4243;49.296;11.348;2022-10-23T13:10:14;116.20;;;2.10;;
8411;SDS011;4243;49.296;11.348;2022-10-23T13:12:53;116.67;;;2.10;;
8411;SDS011;4243;49.296;11.348;2022-10-23T13:15:24;116.57;;;2.20;;
8411;SDS011;4243;49.296;11.348;2022-10-23T13:18:06;115.87;;;2.17;;
8411;SDS011;4243;49.296;11.348;2022-10-23T13:20:36;116.70;;;2.20;;
8411;SDS011;4243;49.296;11.348;2022-10-23T13:26:01;116.43;;;2.40;;
8411;SDS011;4243;49.296;11.348;2022-10-23T13:28:59;117.20;;;2.50;;
8411;SDS011;4243;49.296;11.348;2022-10-23T13:31:34;117.63;;;2.60;;
8411;SDS011;4243;49.296;11.348;2022-10-23T13:34:03;117.50;;;2.77;;
8411;SDS011;4243;49.296;11.348;2022-10-23T13:36:47;117.57;;;2.50;;
8411;SDS011;4243;49.296;11.348;2022-10-23T13:39:42;118.07;;;2.30;;
8411;SDS011;4243;49.296;11.348;2022-10-23T13:42:11;117.87;;;2.40;;
8411;SDS011;4243;49.296;11.348;2022-10-23T13:44:40;117.80;;;2.40;;
8411;SDS011;4243;49.296;11.348;2022-10-23T13:47:11;117.60;;;2.30;;
8411;SDS011;4243;49.296;11.348;2022-10-23T13:49:39;117.80;;;2.30;;
8411;SDS011;4243;49.296;11.348;2022-10-23T13:52:08;117.83;;;2.40;;
8411;SDS011;4243;49.296;11.348;2022-10-23T13:54:40;117.70;;;2.30;;
8411;SDS011;4243;49.296;11.348;2022-10-23T13:57:10;118.00;;;2.20;;
8411;SDS011;4243;49.296;11.348;2022-10-23T13:59:40;118.17;;;2.20;;
8411;SDS011;4243;49.296;11.348;2022-10-23T14:02:13;118.10;;;2.23;;
8411;SDS011;4243;49.296;11.348;2022-10-23T14:04:48;117.80;;;2.13;;
8411;SDS011;4243;49.296;11.348;2022-10-23T14:07:16;117.90;;;2.20;;
8411;SDS011;4243;49.296;11.348;2022-10-23T14:09:44;118.20;;;2.13;;
8411;SDS011;4243;49.296;11.348;2022-10-23T14:12:11;118.23;;;2.37;;
8411;SDS011;4243;49.296;11.348;2022-10-23T14:14:39;117.90;;;2.10;;
8411;SDS011;4243;49.296;11.348;2022-10-23T14:17:06;118.67;;;2.10;;
8411;SDS011;4243;49.296;11.348;2022-10-23T14:19:33;118.50;;;2.17;;
8411;SDS011;4243;49.296;11.348;2022-10-23T14:22:02;117.57;;;2.20;;
8411;SDS011;4243;49.296;11.348;2022-10-23T14:24:29;118.00;;;2.20;;
8411;SDS011;4243;49.296;11.348;2022-10-23T14:26:56;118.70;;;2.20;;
8411;SDS011;4243;49.296;11.348;2022-10-23T14:29:24;118.20;;;2.20;;
8411;SDS011;4243;49.296;11.348;2022-10-23T14:31:52;118.47;;;2.20;;
8411;SDS011;4243;49.296;11.348;2022-10-23T14:34:19;118.10;;;2.27;;
8411;SDS011;4243;49.296;11.348;2022-10-23T14:36:47;118.27;;;2.20;;
8411;SDS011;4243;49.296;11.348;2022-10-23T14:39:21;118.20;;;2.30;;
8411;SDS011;4243;49.296;11.348;2022-10-23T14:41:49;118.07;;;2.27;;
8411;SDS011;4243;49.296;11.348;2022-10-23T14:44:16;118.30;;;2.27;;
8411;SDS011;4243;49.296;11.348;2022-10-23T14:46:44;118.70;;;2.40;;
8411;SDS011;4243;49.296;11.348;2022-10-23T14:49:11;118.60;;;2.50;;
8411;SDS011;4243;49.296;11.348;2022-10-23T14:51:39;119.00;;;2.30;;
8411;SDS011;4243;49.296;11.348;2022-10-23T14:54:06;118.43;;;2.30;;
8411;SDS011;4243;49.296;11.348;2022-10-23T14:56:35;118.60;;;2.30;;
8411;SDS011;4243;49.296;11.348;2022-10-23T14:59:05;118.70;;;2.30;;
8411;SDS011;4243;49.296;11.348;2022-10-23T15:01:35;118.60;;;2.40;;
8411;SDS011;4243;49.296;11.348;2022-10-23T15:04:11;118.77;;;2.40;;
8411;SDS011;4243;49.296;11.348;2022-10-23T15:06:39;117.97;;;2.20;;
8411;SDS011;4243;49.296;11.348;2022-10-23T15:09:07;118.37;;;2.30;;
8411;SDS011;4243;49.296;11.348;2022-10-23T15:11:34;118.83;;;2.30;;
8411;SDS011;4243;49.296;11.348;2022-10-23T15:14:02;118.47;;;2.30;;
8411;SDS011;4243;49.296;11.348;2022-10-23T15:16:29;118.60;;;2.33;;
8411;SDS011;4243;49.296;11.348;2022-10-23T15:18:58;119.07;;;2.40;;
8411;SDS011;4243;49.296;11.348;2022-10-23T15:21:26;119.03;;;2.53;;
8411;SDS011;4243;49.296;11.348;2022-10-23T15:23:53;118.83;;;2.50;;
8411;SDS011;4243;49.296;11.348;2022-10-23T15:26:20;119.00;;;2.27;;
8411;SDS011;4243;49.296;11.348;2022-10-23T15:28:52;118.80;;;2.30;;
8411;SDS011;4243;49.296;11.348;2022-10-23T15:33:56;119.20;;;2.27;;
8411;SDS011;4243;49.296;11.348;2022-10-23T15:36:24;119.77;;;2.40;;
8411;SDS011;4243;49.296;11.348;2022-10-23T15:38:52;119.60;;;2.43;;
8411;SDS011;4243;49.296;11.348;2022-10-23T15:41:21;120.10;;;2.53;;
8411;SDS011;4243;49.296;11.348;2022-10-23T15:43:54;119.77;;;2.60;;
8411;SDS011;4243;49.296;11.348;2022-10-23T15:46:24;119.30;;;2.40;;
8411;SDS011;4243;49.296;11.348;2022-10-23T15:48:51;119.97;;;2.50;;
8411;SDS011;4243;49.296;11.348;2022-10-23T15:51:19;118.97;;;2.40;;
8411;SDS011;4243;49.296;11.348;2022-10-23T15:53:47;119.73;;;2.43;;
8411;SDS011;4243;49.296;11.348;2022-10-23T15:56:15;120.10;;;2.30;;
8411;SDS011;4243;49.296;11.348;2022-10-23T15:58:42;119.93;;;2.40;;
8411;SDS011;4243;49.296;11.348;2022-10-23T16:01:09;120.03;;;2.40;;
8411;SDS011;4243;49.296;11.348;2022-10-23T16:03:37;119.27;;;2.40;;
8411;SDS011;4243;49.296;11.348;2022-10-23T16:06:06;120.00;;;2.47;;
8411;SDS011;4243;49.296;11.348;2022-10-23T16:08:36;120.03;;;2.40;;
8411;SDS011;4243;49.296;11.348;2022-10-23T16:11:11;120.37;;;2.40;;
8411;SDS011;4243;49.296;11.348;2022-10-23T16:13:50;120.10;;;2.40;;
8411;SDS011;4243;49.296;11.348;2022-10-23T16:16:20;119.87;;;2.40;;
8411;SDS011;4243;49.296;11.348;2022-10-23T16:18:47;120.00;;;2.37;;
8411;SDS011;4243;49.296;11.348;2022-10-23T16:21:19;120.30;;;2.40;;
8411;SDS011;4243;49.296;11.348;2022-10-23T16:23:53;120.07;;;2.50;;
8411;SDS011;4243;49.296;11.348;2022-10-23T16:26:23;119.63;;;2.40;;
8411;SDS011;4243;49.296;11.348;2022-10-23T16:28:52;119.87;;;2.50;;
8411;SDS011;4243;49.296;11.348;2022-10-23T16:31:26;120.00;;;2.50;;
8411;SDS011;4243;49.296;11.348;2022-10-23T16:33:58;120.07;;;2.50;;
8411;SDS011;4243;49.296;11.348;2022-10-23T16:36:27;120.03;;;2.47;;
8411;SDS011;4243;49.296;11.348;2022-10-23T16:39:14;120.20;;;2.53;;
8411;SDS011;4243;49.296;11.348;2022-10-23T16:42:02;119.90;;;2.57;;
8411;SDS011;4243;49.296;11.348;2022-10-23T16:44:49;119.70;;;2.47;;
8411;SDS011;4243;49.296;11.348;2022-10-23T16:47:17;120.17;;;2.50;;
8411;SDS011;4243;49.296;11.348;2022-10-23T16:49:44;120.17;;;2.50;;
8411;SDS011;4243;49.296;11.348;2022-10-23T16:52:11;120.00;;;2.50;;
8411;SDS011;4243;49.296;11.348;2022-10-23T16:54:38;119.90;;;2.50;;
8411;SDS011;4243;49.296;11.348;2022-10-23T16:57:08;120.40;;;2.60;;
8411;SDS011;4243;49.296;11.348;2022-10-23T16:59:35;120.23;;;2.60;;
8411;SDS011;4243;49.296;11.348;2022-10-23T17:02:02;119.90;;;2.50;;
8411;SDS011;4243;49.296;11.348;2022-10-23T17:04:30;120.03;;;2.50;;
8411;SDS011;4243;49.296;11.348;2022-10-23T17:06:57;119.67;;;2.70;;
8411;SDS011;4243;49.296;11.348;2022-10-23T17:09:24;119.63;;;2.70;;